createdAt,value
2017-09-19T00:00:01.000Z,17.2
2017-09-19T00:10:01.000Z,17.2
2017-09-19T00:20:02.000Z,17.2
2017-09-19T00:30:01.000Z,17.2
2017-09-19T00:40:01.000Z,17.2
2017-09-19T00:50:02.000Z,17.2
2017-09-19T01:00:01.000Z,17.1
2017-09-19T01:10:01.000Z,17
2017-09-19T01:20:02.000Z,17
2017-09-19T01:30:01.000Z,17.2
2017-09-19T01:40:01.000Z,17.2
2017-09-19T01:50:02.000Z,17.2
2017-09-19T02:00:01.000Z,17.2
2017-09-19T02:10:01.000Z,17.2
2017-09-19T02:20:01.000Z,17.2
2017-09-19T02:30:05.000Z,17.2
2017-09-19T02:40:01.000Z,17.2
2017-09-19T02:50:01.000Z,17.2
2017-09-19T03:00:01.000Z,17.2
2017-09-19T03:10:01.000Z,17.2
2017-09-19T03:20:01.000Z,17.2
2017-09-19T03:30:01.000Z,17.2
2017-09-19T03:40:01.000Z,17.2
2017-09-19T03:50:01.000Z,17.2
2017-09-19T04:00:02.000Z,17.2
2017-09-19T04:10:01.000Z,17.2
2017-09-19T04:20:01.000Z,17.2
2017-09-19T04:30:02.000Z,17.2
2017-09-19T04:40:01.000Z,17.2
2017-09-19T04:50:01.000Z,17.2
2017-09-19T05:00:02.000Z,17.2
2017-09-19T05:10:05.000Z,17.2
2017-09-19T05:20:01.000Z,17.2
2017-09-19T05:30:02.000Z,17.2
2017-09-19T05:40:01.000Z,17.2
2017-09-19T05:50:01.000Z,17.2
2017-09-19T06:00:02.000Z,17.2
2017-09-19T06:10:01.000Z,17.2
2017-09-19T06:20:01.000Z,17.2
2017-09-19T06:30:02.000Z,17.2
2017-09-19T06:40:01.000Z,17.2
2017-09-19T06:50:01.000Z,17.2
2017-09-19T07:00:02.000Z,17.2
2017-09-19T07:10:01.000Z,17.2
2017-09-19T07:20:01.000Z,17.2
2017-09-19T07:30:01.000Z,17.2
2017-09-19T07:40:01.000Z,17.2
2017-09-19T07:50:05.000Z,17.2
2017-09-19T08:00:01.000Z,17.2
2017-09-19T08:10:01.000Z,17.2
2017-09-19T08:20:01.000Z,17.2
2017-09-19T08:30:01.000Z,17.2
2017-09-19T08:40:02.000Z,17.2
2017-09-19T08:50:01.000Z,17.2
2017-09-19T09:00:01.000Z,17.2
2017-09-19T09:10:01.000Z,17.2
2017-09-19T09:20:02.000Z,17.2
2017-09-19T09:30:01.000Z,17.2
2017-09-19T09:40:01.000Z,17.2
2017-09-19T09:50:01.000Z,17.2
2017-09-19T10:00:02.000Z,17.2
2017-09-19T10:10:01.000Z,17.2
2017-09-19T10:20:01.000Z,17.2
2017-09-19T10:30:05.000Z,17.2
2017-09-19T10:40:01.000Z,17.2
2017-09-19T10:50:01.000Z,17.2
2017-09-19T11:00:02.000Z,17.2
2017-09-19T11:10:01.000Z,17.2
2017-09-19T11:20:01.000Z,17.2
2017-09-19T11:30:01.000Z,17.2
2017-09-19T11:40:02.000Z,17.2
2017-09-19T11:50:01.000Z,17.2
2017-09-19T12:00:01.000Z,17.2
2017-09-19T12:10:02.000Z,17.2
2017-09-19T12:20:01.000Z,17.2
2017-09-19T12:30:01.000Z,17.2
2017-09-19T12:40:02.000Z,17.2
2017-09-19T12:50:01.000Z,17.2
2017-09-19T13:00:01.000Z,17.2
2017-09-19T13:10:04.000Z,17.2
2017-09-19T13:20:01.000Z,17.5
2017-09-19T13:30:01.000Z,17.3
2017-09-19T13:40:02.000Z,17.7
2017-09-19T13:50:01.000Z,17.8
2017-09-19T14:00:01.000Z,17.6
2017-09-19T14:10:01.000Z,17.5
2017-09-19T14:20:02.000Z,17.7
2017-09-19T14:30:01.000Z,17.9
2017-09-19T14:40:01.000Z,17.9
2017-09-19T14:50:01.000Z,17.9
2017-09-19T15:00:01.000Z,17.9
2017-09-19T15:10:01.000Z,17.9
2017-09-19T15:20:02.000Z,17.9
2017-09-19T15:30:01.000Z,17.9
2017-09-19T15:40:01.000Z,17.9
2017-09-19T15:50:05.000Z,17.9
2017-09-19T16:00:01.000Z,17.9
2017-09-19T16:10:01.000Z,17.9
2017-09-19T16:20:01.000Z,17.9
2017-09-19T16:30:01.000Z,17.9
2017-09-19T16:40:01.000Z,17.9
2017-09-19T16:50:01.000Z,17.9
2017-09-19T17:00:01.000Z,17.9
2017-09-19T17:10:01.000Z,17.9
2017-09-19T17:20:02.000Z,17.8
2017-09-19T17:30:01.000Z,17.7
2017-09-19T17:40:01.000Z,17.6
2017-09-19T17:50:02.000Z,17.5
2017-09-19T18:00:01.000Z,17.4
2017-09-19T18:10:01.000Z,17.5
2017-09-19T18:20:02.000Z,17.5
2017-09-19T18:30:05.000Z,17.4
2017-09-19T18:40:01.000Z,17.4
2017-09-19T18:50:02.000Z,17.2
2017-09-19T19:00:01.000Z,17.2
2017-09-19T19:10:01.000Z,17.4
2017-09-19T19:20:01.000Z,17.4
2017-09-19T19:30:02.000Z,17.2
2017-09-19T19:40:01.000Z,17.6
2017-09-19T19:50:01.000Z,17.6
2017-09-19T20:00:01.000Z,17.6
2017-09-19T20:10:01.000Z,17.6
2017-09-19T20:20:01.000Z,17.7
2017-09-19T20:30:01.000Z,17.6
2017-09-19T20:40:01.000Z,17.3
2017-09-19T20:50:01.000Z,17.2
2017-09-19T21:00:02.000Z,17.2
2017-09-19T21:10:05.000Z,17.2
2017-09-19T21:20:01.000Z,17.2
2017-09-19T21:30:02.000Z,17.2
2017-09-19T21:40:01.000Z,17.2
2017-09-19T21:50:01.000Z,17.2
2017-09-19T22:00:02.000Z,17.2
2017-09-19T22:10:01.000Z,17.2
2017-09-19T22:20:01.000Z,17.2
2017-09-19T22:30:02.000Z,17.2
2017-09-19T22:40:01.000Z,17.2
2017-09-19T22:50:01.000Z,17.2
2017-09-19T23:00:02.000Z,17.2
2017-09-19T23:10:01.000Z,17.2
2017-09-19T23:20:01.000Z,17.2
2017-09-19T23:30:01.000Z,17.2
2017-09-19T23:40:01.000Z,17.2
2017-09-19T23:50:05.000Z,17.2
